createdAt,value
2023-05-14T00:00:43.402Z,83.55
2023-05-14T00:01:43.365Z,83.34
2023-05-14T00:02:43.484Z,82.63
2023-05-14T00:03:43.482Z,81.91
2023-05-14T00:04:43.333Z,81.81
2023-05-14T00:05:43.323Z,82.22
2023-05-14T00:06:43.313Z,82.32
2023-05-14T00:07:43.301Z,82.56
2023-05-14T00:08:43.310Z,82.67
2023-05-14T00:09:43.287Z,83.07
2023-05-14T00:10:43.272Z,83.69
2023-05-14T00:11:43.253Z,83.49
2023-05-14T00:12:43.268Z,83.07
2023-05-14T00:13:43.241Z,82.56
2023-05-14T00:14:43.247Z,82.42
2023-05-14T00:15:43.289Z,82.12
2023-05-14T00:16:43.213Z,81.81
2023-05-14T00:17:43.207Z,81.57
2023-05-14T00:18:43.249Z,81.36
2023-05-14T00:19:43.179Z,81.12
2023-05-14T00:20:43.167Z,81.01
2023-05-14T00:21:43.147Z,80.81
2023-05-14T00:22:43.142Z,80.16
2023-05-14T00:23:43.138Z,79.85
2023-05-14T00:24:43.266Z,79.54
2023-05-14T00:25:43.105Z,79.24
2023-05-14T00:26:43.100Z,78.89
2023-05-14T00:27:43.093Z,78.89
2023-05-14T00:28:43.079Z,78.59
2023-05-14T00:29:43.049Z,78.28
2023-05-14T00:30:43.067Z,78.17
2023-05-14T00:31:43.039Z,78.08
2023-05-14T00:32:43.087Z,77.87
2023-05-14T00:33:43.013Z,77.63
2023-05-14T00:34:43.010Z,77.63
2023-05-14T00:35:42.985Z,77.42
2023-05-14T00:36:42.982Z,77.42
2023-05-14T00:37:43.075Z,77.01
2023-05-14T00:38:42.971Z,77.12
2023-05-14T00:39:42.985Z,77.67
2023-05-14T00:40:42.947Z,77.56
2023-05-14T00:41:42.945Z,78.08
2023-05-14T00:42:42.920Z,78.38
2023-05-14T00:43:42.911Z,78.08
2023-05-14T00:44:42.911Z,78.08
2023-05-14T00:45:42.891Z,77.97
2023-05-14T00:46:42.979Z,79.03
2023-05-14T00:47:42.869Z,79.79
2023-05-14T00:48:42.857Z,80.09
2023-05-14T00:49:42.852Z,80.71
2023-05-14T00:50:42.829Z,81.01
2023-05-14T00:51:42.810Z,80.91
2023-05-14T00:52:42.800Z,80.91
2023-05-14T00:53:42.794Z,80.81
2023-05-14T00:54:42.779Z,80.91
2023-05-14T00:55:42.808Z,81.12
2023-05-14T00:56:42.766Z,80.81
2023-05-14T00:57:42.762Z,81.29
2023-05-14T00:58:42.741Z,80.67
2023-05-14T00:59:42.809Z,80.88
2023-05-14T01:00:42.733Z,80.40
2023-05-14T01:01:42.707Z,80.51
2023-05-14T01:02:42.719Z,80.81
2023-05-14T01:03:42.761Z,80.91
2023-05-14T01:04:42.674Z,81.43
2023-05-14T01:05:42.651Z,81.32
2023-05-14T01:06:42.657Z,81.01
2023-05-14T01:07:42.637Z,80.81
2023-05-14T01:08:42.636Z,81.22
2023-05-14T01:09:42.622Z,81.12
2023-05-14T01:10:42.601Z,81.01
2023-05-14T01:11:42.604Z,81.36
2023-05-14T01:12:42.610Z,81.87
2023-05-14T01:13:42.568Z,81.98
2023-05-14T01:14:42.559Z,81.87
2023-05-14T01:15:42.557Z,81.77
2023-05-14T01:16:42.584Z,81.15
2023-05-14T01:17:42.599Z,81.05
2023-05-14T01:18:42.591Z,81.15
2023-05-14T01:19:42.531Z,80.95
2023-05-14T01:20:42.515Z,81.15
2023-05-14T01:21:42.484Z,80.64
2023-05-14T01:22:42.469Z,80.64
2023-05-14T01:23:42.454Z,80.54
2023-05-14T01:24:42.445Z,80.40
2023-05-14T01:25:42.451Z,80.30
2023-05-14T01:26:42.438Z,79.89
2023-05-14T01:27:42.422Z,80.44
2023-05-14T01:28:42.394Z,80.95
2023-05-14T01:29:42.390Z,81.91
2023-05-14T01:30:42.380Z,82.63
2023-05-14T01:31:42.392Z,82.42
2023-05-14T01:32:42.432Z,82.73
2023-05-14T01:33:42.339Z,82.63
2023-05-14T01:34:42.345Z,83.14
2023-05-14T01:35:42.314Z,82.83
2023-05-14T01:36:42.314Z,82.93
2023-05-14T01:37:42.297Z,83.86
2023-05-14T01:38:42.330Z,83.90
2023-05-14T01:39:42.286Z,83.59
2023-05-14T01:40:42.277Z,83.25
2023-05-14T01:41:42.272Z,83.76
2023-05-14T01:42:42.277Z,83.04
2023-05-14T01:43:42.230Z,82.63
2023-05-14T01:44:42.231Z,82.63
2023-05-14T01:45:42.254Z,83.80
2023-05-14T01:46:42.228Z,83.39
2023-05-14T01:47:42.211Z,84.10
2023-05-14T01:48:42.179Z,84.20
2023-05-14T01:49:42.161Z,84.34
2023-05-14T01:50:42.164Z,85.06
2023-05-14T01:51:42.152Z,84.25
2023-05-14T01:52:42.157Z,85.31
2023-05-14T01:53:42.123Z,85.52
2023-05-14T01:54:42.128Z,85.35
2023-05-14T01:55:42.103Z,85.14
2023-05-14T01:56:42.118Z,86.17
2023-05-14T01:57:42.087Z,86.11
2023-05-14T01:58:42.070Z,86.68
2023-05-14T01:59:42.042Z,86.99
2023-05-14T02:00:42.037Z,87.61
2023-05-14T02:01:42.063Z,87.40
2023-05-14T02:02:42.050Z,86.44
2023-05-14T02:03:42.075Z,85.47
2023-05-14T02:04:41.998Z,84.41
2023-05-14T02:05:41.984Z,83.14
2023-05-14T02:06:41.985Z,82.08
2023-05-14T02:07:41.978Z,81.32
2023-05-14T02:08:41.979Z,80.05
2023-05-14T02:09:41.960Z,79.50
2023-05-14T02:10:41.936Z,79.00
2023-05-14T02:11:41.923Z,78.49
2023-05-14T02:12:41.933Z,78.24
2023-05-14T02:13:41.901Z,77.94
2023-05-14T02:14:41.899Z,77.73
2023-05-14T02:15:41.933Z,77.53
2023-05-14T02:16:41.872Z,77.42
2023-05-14T02:17:41.890Z,77.32
2023-05-14T02:18:41.856Z,77.22
2023-05-14T02:19:41.833Z,77.29
2023-05-14T02:20:41.836Z,77.08
2023-05-14T02:21:41.856Z,76.98
2023-05-14T02:22:41.804Z,76.98
2023-05-14T02:23:42.270Z,76.88
2023-05-14T02:24:41.787Z,76.88
2023-05-14T02:25:41.785Z,76.88
2023-05-14T02:26:41.754Z,76.98
2023-05-14T02:27:41.761Z,76.98
2023-05-14T02:28:41.729Z,76.88
2023-05-14T02:29:41.747Z,77.19
2023-05-14T02:30:41.711Z,77.19
2023-05-14T02:31:41.714Z,77.08
2023-05-14T02:32:41.838Z,77.08
2023-05-14T02:33:41.757Z,76.98
2023-05-14T02:34:41.690Z,76.98
2023-05-14T02:35:41.664Z,76.88
2023-05-14T02:36:41.642Z,76.84
2023-05-14T02:37:41.645Z,76.74
2023-05-14T02:38:41.633Z,76.64
2023-05-14T02:39:41.632Z,76.84
2023-05-14T02:40:41.609Z,76.84
2023-05-14T02:41:41.599Z,76.84
2023-05-14T02:42:41.588Z,76.84
2023-05-14T02:43:41.651Z,76.94
2023-05-14T02:44:41.571Z,76.94
2023-05-14T02:45:41.558Z,76.94
2023-05-14T02:46:41.588Z,76.94
2023-05-14T02:47:41.592Z,77.04
2023-05-14T02:48:41.516Z,77.25
2023-05-14T02:49:41.498Z,77.15
2023-05-14T02:50:41.497Z,77.15
2023-05-14T02:51:41.487Z,77.15
2023-05-14T02:52:41.493Z,77.15
2023-05-14T02:53:41.464Z,77.15
2023-05-14T02:54:41.446Z,77.04
2023-05-14T02:55:41.446Z,77.04
2023-05-14T02:56:41.431Z,77.15
2023-05-14T02:57:41.422Z,77.35
2023-05-14T02:58:41.416Z,77.25
2023-05-14T02:59:41.396Z,77.45
2023-05-14T03:00:41.408Z,77.35
2023-05-14T03:01:41.376Z,77.45
2023-05-14T03:02:41.474Z,77.45
2023-05-14T03:03:41.356Z,77.45
2023-05-14T03:04:41.341Z,77.56
2023-05-14T03:05:41.332Z,77.76
2023-05-14T03:06:41.272Z,77.76
2023-05-14T03:07:41.258Z,77.76
2023-05-14T03:08:41.329Z,77.97
2023-05-14T03:09:41.282Z,77.86
2023-05-14T03:10:41.268Z,77.97
2023-05-14T03:11:41.271Z,77.97
2023-05-14T03:12:41.259Z,77.97
2023-05-14T03:13:41.244Z,78.07
2023-05-14T03:14:41.193Z,77.97
2023-05-14T03:15:41.170Z,78.07
2023-05-14T03:16:41.262Z,78.17
2023-05-14T03:17:41.247Z,78.17
2023-05-14T03:18:41.206Z,78.17
2023-05-14T03:19:41.123Z,77.97
2023-05-14T03:20:41.121Z,78.17
2023-05-14T03:21:41.105Z,77.86
2023-05-14T03:22:41.077Z,77.97
2023-05-14T03:23:41.078Z,78.17
2023-05-14T03:24:41.089Z,78.17
2023-05-14T03:25:41.093Z,78.17
2023-05-14T03:26:41.040Z,78.27
2023-05-14T03:27:41.032Z,78.17
2023-05-14T03:28:41.017Z,78.38
2023-05-14T03:29:41.011Z,78.27
2023-05-14T03:30:41.001Z,78.27
2023-05-14T03:31:40.995Z,78.38
2023-05-14T03:32:41.062Z,78.48
2023-05-14T03:33:40.980Z,78.48
2023-05-14T03:34:40.948Z,78.38
2023-05-14T03:35:40.930Z,78.48
2023-05-14T03:36:40.933Z,78.61
2023-05-14T03:37:40.912Z,78.72
2023-05-14T03:38:40.916Z,78.52
2023-05-14T03:39:40.911Z,77.90
2023-05-14T03:40:40.888Z,78.61
2023-05-14T03:41:40.877Z,79.47
2023-05-14T03:42:40.861Z,79.68
2023-05-14T03:43:40.858Z,79.91
2023-05-14T03:44:40.835Z,80.36
2023-05-14T03:45:40.857Z,80.05
2023-05-14T03:46:40.810Z,80.71
2023-05-14T03:47:40.824Z,81.43
2023-05-14T03:48:40.849Z,82.45
2023-05-14T03:49:40.788Z,82.96
2023-05-14T03:50:40.786Z,83.17
2023-05-14T03:51:40.775Z,83.17
2023-05-14T03:52:40.758Z,83.03
2023-05-14T03:53:40.748Z,82.82
2023-05-14T03:54:40.723Z,82.65
2023-05-14T03:55:40.726Z,82.55
2023-05-14T03:56:40.708Z,82.45
2023-05-14T03:57:40.708Z,82.35
2023-05-14T03:58:40.685Z,82.24
2023-05-14T03:59:40.692Z,82.35
2023-05-14T04:00:40.656Z,82.14
2023-05-14T04:01:40.648Z,82.08
2023-05-14T04:02:40.755Z,82.79
2023-05-14T04:03:40.887Z,83.86
2023-05-14T04:04:40.645Z,84.31
2023-05-14T04:05:40.637Z,84.76
2023-05-14T04:06:40.602Z,85.58
2023-05-14T04:07:40.582Z,86.13
2023-05-14T04:08:40.587Z,86.44
2023-05-14T04:09:40.582Z,86.95
2023-05-14T04:10:40.547Z,86.75
2023-05-14T04:11:40.555Z,86.85
2023-05-14T04:12:40.544Z,86.30
2023-05-14T04:13:40.537Z,86.60
2023-05-14T04:14:40.521Z,86.91
2023-05-14T04:15:40.518Z,86.40
2023-05-14T04:16:40.601Z,86.25
2023-05-14T04:17:40.552Z,85.85
2023-05-14T04:18:40.482Z,85.54
2023-05-14T04:19:40.463Z,85.78
2023-05-14T04:20:40.466Z,86.19
2023-05-14T04:21:40.458Z,86.81
2023-05-14T04:22:40.433Z,86.91
2023-05-14T04:23:40.416Z,87.46
2023-05-14T04:24:40.400Z,88.08
2023-05-14T04:25:40.386Z,88.43
2023-05-14T04:26:40.416Z,89.04
2023-05-14T04:27:40.389Z,89.04
2023-05-14T04:28:40.355Z,89.04
2023-05-14T04:29:40.361Z,89.15
2023-05-14T04:30:40.332Z,89.97
2023-05-14T04:31:40.339Z,89.97
2023-05-14T04:32:40.377Z,89.83
2023-05-14T04:33:40.316Z,90.34
2023-05-14T04:34:40.279Z,89.52
2023-05-14T04:35:40.273Z,89.21
2023-05-14T04:36:40.301Z,88.76
2023-05-14T04:37:40.255Z,88.66
2023-05-14T04:38:40.241Z,88.96
2023-05-14T04:39:40.235Z,88.86
2023-05-14T04:40:40.216Z,88.66
2023-05-14T04:41:40.206Z,88.56
2023-05-14T04:42:40.194Z,88.66
2023-05-14T04:43:40.190Z,88.76
2023-05-14T04:44:40.181Z,89.17
2023-05-14T04:45:40.182Z,89.13
2023-05-14T04:46:40.149Z,89.23
2023-05-14T04:47:40.158Z,89.27
2023-05-14T04:48:40.149Z,89.58
2023-05-14T04:49:40.140Z,90.20
2023-05-14T04:50:40.126Z,89.99
2023-05-14T04:51:40.114Z,90.40
2023-05-14T04:52:40.081Z,91.22
2023-05-14T04:53:40.085Z,91.74
2023-05-14T04:54:40.111Z,91.94
2023-05-14T04:55:40.053Z,91.74
2023-05-14T04:56:40.049Z,91.42
2023-05-14T04:57:40.059Z,91.38
2023-05-14T04:58:40.044Z,91.18
2023-05-14T04:59:40.022Z,90.36
2023-05-14T05:00:40.017Z,91.38
2023-05-14T05:01:40.114Z,91.59
2023-05-14T05:02:40.041Z,90.56
2023-05-14T05:03:40.043Z,90.83
2023-05-14T05:04:39.969Z,91.35
2023-05-14T05:05:39.959Z,91.03
2023-05-14T05:06:39.935Z,90.11
2023-05-14T05:07:39.930Z,90.37
2023-05-14T05:08:39.933Z,90.48
2023-05-14T05:09:39.917Z,89.56
2023-05-14T05:10:39.911Z,89.25
2023-05-14T05:11:39.914Z,89.76
2023-05-14T05:12:39.899Z,90.23
2023-05-14T05:13:39.875Z,89.72
2023-05-14T05:14:39.864Z,89.42
2023-05-14T05:15:39.889Z,89.21
2023-05-14T05:16:39.833Z,90.30
2023-05-14T05:17:39.869Z,89.37
2023-05-14T05:18:39.911Z,89.06
2023-05-14T05:19:44.323Z,88.62
2023-05-14T05:20:39.790Z,89.53
2023-05-14T05:21:39.787Z,88.71
2023-05-14T05:22:39.773Z,90.00
2023-05-14T05:23:39.810Z,90.92
2023-05-14T05:24:39.745Z,89.80
2023-05-14T05:25:39.746Z,88.37
2023-05-14T05:26:39.742Z,88.06
2023-05-14T05:27:39.728Z,87.65
2023-05-14T05:28:39.752Z,87.61
2023-05-14T05:29:39.693Z,87.20
2023-05-14T05:30:39.682Z,87.10
2023-05-14T05:31:39.722Z,86.65
2023-05-14T05:32:39.712Z,86.55
2023-05-14T05:33:39.665Z,86.14
2023-05-14T05:34:39.652Z,86.76
2023-05-14T05:35:39.634Z,87.02
2023-05-14T05:36:39.615Z,86.51
2023-05-14T05:37:39.599Z,86.10
2023-05-14T05:38:39.590Z,85.79
2023-05-14T05:39:39.599Z,85.35
2023-05-14T05:40:39.572Z,84.74
2023-05-14T05:41:39.556Z,84.53
2023-05-14T05:42:39.540Z,83.81
2023-05-14T05:43:39.530Z,83.61
2023-05-14T05:44:39.519Z,83.16
2023-05-14T05:45:39.507Z,82.86
2023-05-14T05:46:39.630Z,83.37
2023-05-14T05:47:39.499Z,82.96
2023-05-14T05:48:39.470Z,82.96
2023-05-14T05:49:39.491Z,82.75
2023-05-14T05:50:39.457Z,82.61
2023-05-14T05:51:39.448Z,83.12
2023-05-14T05:52:39.454Z,82.82
2023-05-14T05:53:39.437Z,82.82
2023-05-14T05:54:39.425Z,82.31
2023-05-14T05:55:39.416Z,83.09
2023-05-14T05:56:39.391Z,82.98
2023-05-14T05:57:39.419Z,82.57
2023-05-14T05:58:39.362Z,83.35
2023-05-14T05:59:39.354Z,82.13
2023-05-14T06:00:39.335Z,80.46
2023-05-14T06:01:39.344Z,80.05
2023-05-14T06:02:39.458Z,80.87
2023-05-14T06:03:39.379Z,78.83
2023-05-14T06:04:39.310Z,77.57
2023-05-14T06:05:39.321Z,77.57
2023-05-14T06:06:39.284Z,77.26
2023-05-14T06:07:39.286Z,77.03
2023-05-14T06:08:39.281Z,76.42
2023-05-14T06:09:39.322Z,76.52
2023-05-14T06:10:39.239Z,76.42
2023-05-14T06:11:39.219Z,75.91
2023-05-14T06:12:39.213Z,76.48
2023-05-14T06:13:39.192Z,75.26
2023-05-14T06:14:39.197Z,74.85
2023-05-14T06:15:39.195Z,74.24
2023-05-14T06:16:39.204Z,73.54
2023-05-14T06:17:39.202Z,74.82
2023-05-14T06:18:39.154Z,73.70
2023-05-14T06:19:39.155Z,73.39
2023-05-14T06:20:39.131Z,73.30
2023-05-14T06:21:39.130Z,73.60
2023-05-14T06:22:39.105Z,73.30
2023-05-14T06:23:39.127Z,73.30
2023-05-14T06:24:39.068Z,73.06
2023-05-14T06:25:39.060Z,73.57
2023-05-14T06:26:39.060Z,72.96
2023-05-14T06:27:39.058Z,71.73
2023-05-14T06:28:39.049Z,71.20
2023-05-14T06:29:39.060Z,71.50
2023-05-14T06:30:39.005Z,70.08
2023-05-14T06:31:39.066Z,70.68
2023-05-14T06:32:39.044Z,70.65
2023-05-14T06:33:38.980Z,70.45
2023-05-14T06:34:38.996Z,70.04
2023-05-14T06:35:38.946Z,69.74
2023-05-14T06:36:38.946Z,69.23
2023-05-14T06:37:38.928Z,69.54
2023-05-14T06:38:38.930Z,69.43
2023-05-14T06:39:38.913Z,70.35
2023-05-14T06:40:38.892Z,69.34
2023-05-14T06:41:38.888Z,69.54
2023-05-14T06:42:38.879Z,69.43
2023-05-14T06:43:38.864Z,69.54
2023-05-14T06:44:38.869Z,69.84
2023-05-14T06:45:38.846Z,68.90
2023-05-14T06:46:38.847Z,71.64
2023-05-14T06:47:38.862Z,71.23
2023-05-14T06:48:38.885Z,69.20
2023-05-14T06:49:38.836Z,69.00
2023-05-14T06:50:38.794Z,67.98
2023-05-14T06:51:38.792Z,69.07
2023-05-14T06:52:38.772Z,68.05
2023-05-14T06:53:38.754Z,67.44
2023-05-14T06:54:38.742Z,68.66
2023-05-14T06:55:38.724Z,68.66
2023-05-14T06:56:38.735Z,68.87
2023-05-14T06:57:40.646Z,68.46
2023-05-14T06:58:38.698Z,68.66
2023-05-14T06:59:38.690Z,68.66
2023-05-14T07:00:38.686Z,68.15
2023-05-14T07:01:38.736Z,68.56
2023-05-14T07:02:38.702Z,69.13
2023-05-14T07:03:38.643Z,69.13
2023-05-14T07:04:38.720Z,69.74
2023-05-14T07:05:38.614Z,69.13
2023-05-14T07:06:38.614Z,69.44
2023-05-14T07:07:38.607Z,68.02
2023-05-14T07:08:38.589Z,70.15
2023-05-14T07:09:38.605Z,69.00
2023-05-14T07:10:38.564Z,67.99
2023-05-14T07:11:38.552Z,67.99
2023-05-14T07:12:38.541Z,67.68
2023-05-14T07:13:38.553Z,68.49
2023-05-14T07:14:38.536Z,68.19
2023-05-14T07:15:38.530Z,68.40
2023-05-14T07:16:38.674Z,68.80
2023-05-14T07:17:38.537Z,69.68
2023-05-14T07:18:38.596Z,68.66
2023-05-14T07:19:38.560Z,69.78
2023-05-14T07:20:38.639Z,67.05
2023-05-14T07:21:38.559Z,66.94
2023-05-14T07:22:38.443Z,67.96
2023-05-14T07:23:38.433Z,66.64
2023-05-14T07:24:38.506Z,66.94
2023-05-14T07:25:38.408Z,66.84
2023-05-14T07:26:38.399Z,67.65
2023-05-14T07:27:38.381Z,67.96
2023-05-14T07:28:38.375Z,67.82
2023-05-14T07:29:38.370Z,67.01
2023-05-14T07:30:38.343Z,68.53
2023-05-14T07:31:38.396Z,68.63
2023-05-14T07:32:38.345Z,65.70
2023-05-14T07:33:38.335Z,66.71
2023-05-14T07:34:38.305Z,67.08
2023-05-14T07:35:38.293Z,67.69
2023-05-14T07:36:38.300Z,66.00
2023-05-14T07:37:38.265Z,65.16
2023-05-14T07:38:38.268Z,64.96
2023-05-14T07:39:38.257Z,66.07
2023-05-14T07:40:38.233Z,65.67
2023-05-14T07:41:38.222Z,65.36
2023-05-14T07:42:38.233Z,65.67
2023-05-14T07:43:38.195Z,64.65
2023-05-14T07:44:38.216Z,64.45
2023-05-14T07:45:38.200Z,63.54
2023-05-14T07:46:38.171Z,63.84
2023-05-14T07:47:38.293Z,63.41
2023-05-14T07:48:38.226Z,62.90
2023-05-14T07:49:38.167Z,64.12
2023-05-14T07:50:38.130Z,65.33
2023-05-14T07:51:38.136Z,64.02
2023-05-14T07:52:38.125Z,65.13
2023-05-14T07:53:38.095Z,65.13
2023-05-14T07:54:38.086Z,64.22
2023-05-14T07:55:38.118Z,66.04
2023-05-14T07:56:38.125Z,64.22
2023-05-14T07:57:38.057Z,64.59
2023-05-14T07:58:38.078Z,64.90
2023-05-14T07:59:38.228Z,63.48
2023-05-14T08:00:38.018Z,63.68
2023-05-14T08:01:39.450Z,65.30
2023-05-14T08:02:38.061Z,65.20
2023-05-14T08:03:38.044Z,63.58
2023-05-14T08:04:38.031Z,64.90
2023-05-14T08:05:37.989Z,64.49
2023-05-14T08:06:37.990Z,65.00
2023-05-14T08:07:37.965Z,63.58
2023-05-14T08:08:37.930Z,65.10
2023-05-14T08:09:37.991Z,63.18
2023-05-14T08:10:37.970Z,63.08
2023-05-14T08:11:37.884Z,63.68
2023-05-14T08:12:37.928Z,64.29
2023-05-14T08:13:37.858Z,64.49
2023-05-14T08:14:37.868Z,64.29
2023-05-14T08:15:37.894Z,64.12
2023-05-14T08:16:37.866Z,64.42
2023-05-14T08:17:37.892Z,64.12
2023-05-14T08:18:37.889Z,65.47
2023-05-14T08:19:37.838Z,64.83
2023-05-14T08:20:37.826Z,65.23
2023-05-14T08:21:37.808Z,65.03
2023-05-14T08:22:37.774Z,65.64
2023-05-14T08:23:37.881Z,64.73
2023-05-14T08:24:37.744Z,65.50
2023-05-14T08:25:38.042Z,64.19
2023-05-14T08:26:37.884Z,63.28
2023-05-14T08:27:37.710Z,62.87
2023-05-14T08:28:37.698Z,63.99
2023-05-14T08:29:37.713Z,64.39
2023-05-14T08:30:37.810Z,65.40
2023-05-14T08:31:37.676Z,64.29
2023-05-14T08:32:37.826Z,63.38
2023-05-14T08:33:37.666Z,63.48
2023-05-14T08:34:37.650Z,63.78
2023-05-14T08:35:37.650Z,62.87
2023-05-14T08:36:37.617Z,63.48
2023-05-14T08:37:37.611Z,63.08
2023-05-14T08:38:40.731Z,62.57
2023-05-14T08:39:37.577Z,63.28
2023-05-14T08:40:37.576Z,64.49
2023-05-14T08:41:37.574Z,63.18
2023-05-14T08:42:37.541Z,62.77
2023-05-14T08:43:37.528Z,61.76
2023-05-14T08:44:37.561Z,62.54
2023-05-14T08:45:37.532Z,63.45
2023-05-14T08:46:37.542Z,62.54
2023-05-14T08:47:37.516Z,63.22
2023-05-14T08:48:37.563Z,62.51
2023-05-14T08:49:37.525Z,61.60
2023-05-14T08:50:37.503Z,62.11
2023-05-14T08:51:37.439Z,61.13
2023-05-14T08:52:37.453Z,62.64
2023-05-14T08:53:37.434Z,63.22
2023-05-14T08:54:37.406Z,64.03
2023-05-14T08:55:37.414Z,63.39
2023-05-14T08:56:37.403Z,62.59
2023-05-14T08:57:37.376Z,62.25
2023-05-14T08:58:37.401Z,62.15
2023-05-14T08:59:37.352Z,60.84
2023-05-14T09:00:37.333Z,61.35
2023-05-14T09:01:37.386Z,65.25
2023-05-14T09:02:37.404Z,62.22
2023-05-14T09:03:37.332Z,61.41
2023-05-14T09:04:37.313Z,61.32
2023-05-14T09:05:37.296Z,59.09
2023-05-14T09:06:37.297Z,58.69
2023-05-14T09:07:37.250Z,59.80
2023-05-14T09:08:37.282Z,61.52
2023-05-14T09:09:37.250Z,59.00
2023-05-14T09:10:37.230Z,57.48
2023-05-14T09:11:37.429Z,58.01
2023-05-14T09:12:37.233Z,59.02
2023-05-14T09:13:37.195Z,59.42
2023-05-14T09:14:37.189Z,58.82
2023-05-14T09:15:37.213Z,59.12
2023-05-14T09:16:37.262Z,59.93
2023-05-14T09:17:37.213Z,61.35
2023-05-14T09:18:37.209Z,62.18
2023-05-14T09:19:37.121Z,63.09
2023-05-14T09:20:37.177Z,64.10
2023-05-14T09:21:37.135Z,62.59
2023-05-14T09:22:37.109Z,62.92
2023-05-14T09:23:37.164Z,60.80
2023-05-14T09:24:37.077Z,61.30
2023-05-14T09:25:37.088Z,61.10
2023-05-14T09:26:37.091Z,60.80
2023-05-14T09:27:37.107Z,62.04
2023-05-14T09:28:37.077Z,62.44
2023-05-14T09:29:37.018Z,62.21
2023-05-14T09:30:37.038Z,63.25
2023-05-14T09:31:37.212Z,63.15
2023-05-14T09:32:37.038Z,63.76
2023-05-14T09:33:37.483Z,63.25
2023-05-14T09:34:36.964Z,62.95
2023-05-14T09:35:36.944Z,62.95
2023-05-14T09:36:36.931Z,62.57
2023-05-14T09:37:36.981Z,63.65
2023-05-14T09:38:36.920Z,63.35
2023-05-14T09:39:36.927Z,62.85
2023-05-14T09:40:36.890Z,62.64
2023-05-14T09:41:36.890Z,60.22
2023-05-14T09:42:36.890Z,60.42
2023-05-14T09:43:36.917Z,61.83
2023-05-14T09:44:36.851Z,61.43
2023-05-14T09:45:36.843Z,61.33
2023-05-14T09:46:36.829Z,61.13
2023-05-14T09:47:36.939Z,62.85
2023-05-14T09:48:36.906Z,63.45
2023-05-14T09:49:36.948Z,64.16
2023-05-14T09:50:36.791Z,63.12
2023-05-14T09:51:36.818Z,64.64
2023-05-14T09:52:36.770Z,63.12
2023-05-14T09:53:36.746Z,64.33
2023-05-14T09:54:36.733Z,63.12
2023-05-14T09:55:36.812Z,60.60
2023-05-14T09:56:36.734Z,60.09
2023-05-14T09:57:36.782Z,60.09
2023-05-14T09:58:36.884Z,60.69
2023-05-14T09:59:36.702Z,60.09
2023-05-14T10:00:36.676Z,59.89
2023-05-14T10:01:36.747Z,61.00
2023-05-14T10:02:36.810Z,62.74
2023-05-14T10:03:36.707Z,61.13
2023-05-14T10:04:36.711Z,62.74
2023-05-14T10:05:36.601Z,62.01
2023-05-14T10:06:36.595Z,61.00
2023-05-14T10:07:36.596Z,60.80
2023-05-14T10:08:36.573Z,60.80
2023-05-14T10:09:36.599Z,61.30
2023-05-14T10:10:36.556Z,60.89
2023-05-14T10:11:36.606Z,61.13
2023-05-14T10:12:36.567Z,61.63
2023-05-14T10:13:36.534Z,62.82
2023-05-14T10:14:36.509Z,62.62
2023-05-14T10:15:36.502Z,61.91
2023-05-14T10:16:36.506Z,62.82
2023-05-14T10:17:36.585Z,63.93
2023-05-14T10:18:36.497Z,63.32
2023-05-14T10:19:36.485Z,63.12
2023-05-14T10:20:36.459Z,61.10
2023-05-14T10:21:36.479Z,63.62
2023-05-14T10:22:36.413Z,65.54
2023-05-14T10:23:36.412Z,62.31
2023-05-14T10:24:36.410Z,63.42
2023-05-14T10:25:36.388Z,63.62
2023-05-14T10:26:36.374Z,66.86
2023-05-14T10:27:36.384Z,65.34
2023-05-14T10:28:36.438Z,65.84
2023-05-14T10:29:36.340Z,66.35
2023-05-14T10:30:36.322Z,62.51
2023-05-14T10:31:36.339Z,63.22
2023-05-14T10:32:36.337Z,64.33
2023-05-14T10:33:36.303Z,64.73
2023-05-14T10:34:36.297Z,63.62
2023-05-14T10:35:36.261Z,61.60
2023-05-14T10:36:36.356Z,65.34
2023-05-14T10:37:36.260Z,63.73
2023-05-14T10:38:36.266Z,63.93
2023-05-14T10:39:36.237Z,63.62
2023-05-14T10:40:36.211Z,61.60
2023-05-14T10:41:36.198Z,59.08
2023-05-14T10:42:36.210Z,58.87
2023-05-14T10:43:36.177Z,59.89
2023-05-14T10:44:36.176Z,60.19
2023-05-14T10:45:36.159Z,59.78
2023-05-14T10:46:36.186Z,61.00
2023-05-14T10:47:36.179Z,60.09
2023-05-14T10:48:36.115Z,60.69
2023-05-14T10:49:43.542Z,59.89
2023-05-14T10:50:36.103Z,61.51
2023-05-14T10:51:36.185Z,59.99
2023-05-14T10:52:36.093Z,59.18
2023-05-14T10:53:36.080Z,59.38
2023-05-14T10:54:36.090Z,60.60
2023-05-14T10:55:36.044Z,59.99
2023-05-14T10:56:36.035Z,61.00
2023-05-14T10:57:36.028Z,60.46
2023-05-14T10:58:35.997Z,61.47
2023-05-14T10:59:35.994Z,61.57
2023-05-14T11:00:35.977Z,58.85
2023-05-14T11:01:36.011Z,60.77
2023-05-14T11:02:35.961Z,60.46
2023-05-14T11:03:36.040Z,61.07
2023-05-14T11:04:35.947Z,64.20
2023-05-14T11:05:35.924Z,65.84
2023-05-14T11:06:35.913Z,65.44
2023-05-14T11:07:35.939Z,63.22
2023-05-14T11:08:35.912Z,62.31
2023-05-14T11:09:35.903Z,62.51
2023-05-14T11:10:35.884Z,66.15
2023-05-14T11:11:35.869Z,64.73
2023-05-14T11:12:35.854Z,62.71
2023-05-14T11:13:35.860Z,62.82
2023-05-14T11:14:35.864Z,62.62
2023-05-14T11:15:35.848Z,62.82
2023-05-14T11:16:35.854Z,61.51
2023-05-14T11:17:35.853Z,57.84
2023-05-14T11:18:35.793Z,56.52
2023-05-14T11:19:35.788Z,57.34
2023-05-14T11:20:35.773Z,58.25
2023-05-14T11:21:35.802Z,58.27
2023-05-14T11:22:35.773Z,58.78
2023-05-14T11:23:35.729Z,62.41
2023-05-14T11:24:35.722Z,60.09
2023-05-14T11:25:35.707Z,61.00
2023-05-14T11:26:35.735Z,63.32
2023-05-14T11:27:35.711Z,65.44
2023-05-14T11:28:35.703Z,63.42
2023-05-14T11:29:35.661Z,62.82
2023-05-14T11:30:35.653Z,65.04
2023-05-14T11:31:35.692Z,63.82
2023-05-14T11:32:35.708Z,67.36
2023-05-14T11:33:35.631Z,63.62
2023-05-14T11:34:35.619Z,64.84
2023-05-14T11:35:35.602Z,65.34
2023-05-14T11:36:35.584Z,64.16
2023-05-14T11:37:35.595Z,66.45
2023-05-14T11:38:35.560Z,67.06
2023-05-14T11:39:35.563Z,65.64
2023-05-14T11:40:35.542Z,63.22
2023-05-14T11:41:35.542Z,62.01
2023-05-14T11:42:35.517Z,64.13
2023-05-14T11:43:35.509Z,63.32
2023-05-14T11:44:35.511Z,64.73
2023-05-14T11:45:35.500Z,63.32
2023-05-14T11:46:35.658Z,64.73
2023-05-14T11:47:35.495Z,63.82
2023-05-14T11:48:35.448Z,64.03
2023-05-14T11:49:35.450Z,66.35
2023-05-14T11:50:35.434Z,68.07
2023-05-14T11:51:35.436Z,67.97
2023-05-14T11:52:35.416Z,67.66
2023-05-14T11:53:35.409Z,67.13
2023-05-14T11:54:35.387Z,67.53
2023-05-14T11:55:35.369Z,65.81
2023-05-14T11:56:35.372Z,64.90
2023-05-14T11:57:35.379Z,64.40
2023-05-14T11:58:35.348Z,63.39
2023-05-14T11:59:35.335Z,63.29
2023-05-14T12:00:35.353Z,65.31
2023-05-14T12:01:35.307Z,65.71
2023-05-14T12:02:35.374Z,65.31
2023-05-14T12:03:35.586Z,65.31
2023-05-14T12:04:35.293Z,65.18
2023-05-14T12:05:35.263Z,64.17
2023-05-14T12:06:35.242Z,62.65
2023-05-14T12:07:35.260Z,60.94
2023-05-14T12:08:35.220Z,62.05
2023-05-14T12:09:35.276Z,62.96
2023-05-14T12:10:35.209Z,62.55
2023-05-14T12:11:35.193Z,63.23
2023-05-14T12:12:35.179Z,62.12
2023-05-14T12:13:35.166Z,62.83
2023-05-14T12:14:35.209Z,62.43
2023-05-14T12:15:35.170Z,62.93
2023-05-14T12:16:37.607Z,57.89
2023-05-14T12:17:35.188Z,57.38
2023-05-14T12:18:35.169Z,57.58
2023-05-14T12:19:35.096Z,57.58
2023-05-14T12:20:35.111Z,58.69
2023-05-14T12:21:35.157Z,58.89
2023-05-14T12:22:36.989Z,58.69
2023-05-14T12:23:35.073Z,59.80
2023-05-14T12:24:35.047Z,61.01
2023-05-14T12:25:35.035Z,59.70
2023-05-14T12:26:35.030Z,60.51
2023-05-14T12:27:35.016Z,60.41
2023-05-14T12:28:38.073Z,59.27
2023-05-14T12:29:35.001Z,56.75
2023-05-14T12:30:35.044Z,57.76
2023-05-14T12:31:35.082Z,57.65
2023-05-14T12:32:35.048Z,57.15
2023-05-14T12:33:34.959Z,56.35
2023-05-14T12:34:37.240Z,55.44
2023-05-14T12:35:34.936Z,56.75
2023-05-14T12:36:34.900Z,55.74
2023-05-14T12:37:34.929Z,54.73
2023-05-14T12:38:34.884Z,55.44
2023-05-14T12:39:34.887Z,56.04
2023-05-14T12:40:34.882Z,57.86
2023-05-14T12:41:34.861Z,57.15
2023-05-14T12:42:34.864Z,58.06
2023-05-14T12:43:34.843Z,57.15
2023-05-14T12:44:34.825Z,58.03
2023-05-14T12:45:34.824Z,56.55
2023-05-14T12:46:34.839Z,57.35
2023-05-14T12:47:35.014Z,57.25
2023-05-14T12:48:34.790Z,57.45
2023-05-14T12:49:34.769Z,56.04
2023-05-14T12:50:34.770Z,56.95
2023-05-14T12:51:34.786Z,56.07
2023-05-14T12:52:39.300Z,56.77